Terminal Aerodrome Forecast
Issued by NWS

Home | Current Version | Previous Version | Text Only | Print | Product List | Glossary On
Versions: 1 2 3 4 5 6 7 8 9 10 11 12 13 14 15
540
FTUS43 KPAH 221010 AAA
TAFCGI
TAF AMD
KCGI 221010Z 2210/2306 16012G19KT P6SM -SHRA VCTS SCT040CB BKN070
      TEMPO 2210/2214 5SM -SHRA BR OVC015
     FM221400 17015G24KT 5SM -SHRA BR VCTS OVC025CB
     FM221700 23009KT 6SM -SHRA BR OVC010
     FM222000 33009KT P6SM SCT030 OVC060
     FM222300 34006KT P6SM SCT070 BKN180=

USA.gov is the U.S. government's official web portal to all federal, state and local government web resources and services.